createdAt,value
2023-02-15T00:01:26.795Z,3.52
2023-02-15T00:06:25.977Z,3.51
2023-02-15T00:11:40.037Z,3.53
2023-02-15T00:16:39.362Z,3.56
2023-02-15T00:21:39.786Z,3.55
2023-02-15T00:26:40.749Z,3.50
2023-02-15T00:31:39.708Z,3.70
2023-02-15T00:36:38.665Z,3.75
2023-02-15T00:41:37.461Z,3.73
2023-02-15T00:46:38.200Z,3.85
2023-02-15T00:51:37.021Z,3.86
2023-02-15T00:56:35.980Z,3.86
2023-02-15T01:01:37.581Z,3.73
2023-02-15T01:06:36.469Z,3.70
2023-02-15T01:11:35.390Z,3.70
2023-02-15T01:16:34.290Z,3.60
2023-02-15T01:21:36.660Z,3.61
2023-02-15T01:26:35.362Z,3.64
2023-02-15T01:31:34.244Z,3.62
2023-02-15T01:36:36.306Z,3.53
2023-02-15T01:41:35.142Z,3.39
2023-02-15T01:46:37.383Z,3.35
2023-02-15T01:51:40.505Z,3.24
2023-02-15T01:56:41.983Z,3.12
2023-02-15T02:01:41.386Z,3.10
2023-02-15T02:06:42.103Z,3.06
2023-02-15T02:11:42.852Z,2.95
2023-02-15T02:16:53.643Z,3.07
2023-02-15T02:27:35.126Z,2.86
2023-02-15T02:33:03.709Z,2.79
2023-02-15T02:38:10.482Z,2.59
2023-02-15T02:43:18.025Z,2.75
2023-02-15T02:48:22.216Z,2.86
2023-02-15T02:53:21.614Z,2.94
2023-02-15T02:58:27.215Z,3.00
2023-02-15T03:03:46.890Z,3.11
2023-02-15T03:08:48.758Z,2.96
2023-02-15T03:13:52.405Z,2.96
2023-02-15T03:18:59.329Z,2.87
2023-02-15T03:24:02.950Z,2.85
2023-02-15T03:29:06.004Z,2.80
2023-02-15T03:34:08.913Z,2.79
2023-02-15T03:39:14.140Z,2.73
2023-02-15T03:44:19.021Z,2.67
2023-02-15T03:49:24.082Z,2.68
2023-02-15T03:54:45.758Z,2.67
2023-02-15T04:00:02.155Z,2.64
2023-02-15T04:05:11.948Z,2.51
2023-02-15T04:10:28.538Z,2.54
2023-02-15T04:15:44.987Z,2.57
2023-02-15T04:21:05.300Z,2.56
2023-02-15T04:26:05.681Z,2.44
2023-02-15T04:31:04.590Z,2.42
2023-02-15T04:36:05.202Z,2.34
2023-02-15T04:41:03.908Z,2.34
2023-02-15T04:46:03.317Z,2.26
2023-02-15T04:51:07.006Z,2.19
2023-02-15T04:56:07.255Z,2.28
2023-02-15T05:01:06.081Z,2.24
2023-02-15T05:06:05.407Z,2.12
2023-02-15T05:11:04.180Z,2.11
2023-02-15T05:16:04.487Z,2.15
2023-02-15T05:21:03.447Z,2.18
2023-02-15T05:26:19.360Z,2.22
2023-02-15T05:31:21.276Z,2.28
2023-02-15T05:36:20.257Z,2.29
2023-02-15T05:41:19.058Z,2.30
2023-02-15T05:46:19.277Z,2.32
2023-02-15T05:51:18.120Z,2.25
2023-02-15T05:56:16.884Z,2.17
2023-02-15T06:01:18.266Z,2.28
2023-02-15T06:06:18.801Z,2.25
2023-02-15T06:11:18.130Z,2.36
2023-02-15T06:16:17.372Z,2.36
2023-02-15T06:21:16.386Z,2.48
2023-02-15T06:26:16.560Z,2.58
2023-02-15T06:31:15.362Z,2.69
2023-02-15T06:36:14.673Z,2.67
2023-02-15T06:41:13.416Z,2.72
2023-02-15T06:46:13.573Z,2.83
2023-02-15T06:51:12.314Z,2.93
2023-02-15T06:56:12.739Z,2.96
2023-02-15T07:01:13.188Z,3.02
2023-02-15T07:06:12.466Z,3.03
2023-02-15T07:11:28.475Z,3.18
2023-02-15T07:16:29.189Z,3.11
2023-02-15T07:21:28.302Z,3.11
2023-02-15T07:26:27.196Z,2.97
2023-02-15T07:31:26.320Z,3.28
2023-02-15T07:36:26.540Z,3.45
2023-02-15T07:41:25.700Z,3.33
2023-02-15T07:46:24.548Z,3.29
2023-02-15T07:51:23.375Z,3.36
2023-02-15T07:56:23.540Z,3.48
2023-02-15T08:01:25.299Z,3.52
2023-02-15T08:06:25.561Z,3.66
2023-02-15T08:11:27.357Z,3.74
2023-02-15T08:16:30.854Z,3.61
2023-02-15T08:21:31.138Z,3.40
2023-02-15T08:26:32.045Z,3.54
2023-02-15T08:31:31.364Z,3.86
2023-02-15T08:36:32.757Z,4.01
2023-02-15T08:41:35.108Z,4.03
2023-02-15T08:46:35.889Z,4.29
2023-02-15T08:51:36.620Z,4.59
2023-02-15T08:56:38.804Z,4.78
2023-02-15T09:01:37.633Z,5.01
2023-02-15T09:06:37.166Z,5.45
2023-02-15T09:11:39.049Z,5.97
2023-02-15T09:16:40.111Z,6.48
2023-02-15T09:21:40.700Z,6.94
2023-02-15T09:26:42.813Z,7.10
2023-02-15T09:31:45.390Z,7.49
2023-02-15T09:36:44.389Z,8.17
2023-02-15T09:42:07.964Z,8.55
2023-02-15T09:47:26.328Z,9.15
2023-02-15T09:52:41.305Z,9.22
2023-02-15T09:57:48.818Z,9.76
2023-02-15T10:03:05.892Z,9.72
2023-02-15T10:08:28.653Z,10.32
2023-02-15T10:13:41.994Z,10.65
2023-02-15T10:19:04.977Z,11.02
2023-02-15T10:24:19.844Z,11.06
2023-02-15T10:29:30.673Z,11.79
2023-02-15T10:34:39.382Z,11.92
2023-02-15T10:39:47.435Z,11.60
2023-02-15T10:45:04.539Z,12.02
2023-02-15T10:50:27.607Z,12.31
2023-02-15T10:55:40.457Z,12.24
2023-02-15T11:00:47.240Z,12.64
2023-02-15T11:05:56.077Z,12.22
2023-02-15T11:11:02.104Z,12.01
2023-02-15T11:16:06.823Z,12.80
2023-02-15T11:21:09.711Z,12.81
2023-02-15T11:26:15.175Z,13.56
2023-02-15T11:31:20.405Z,13.56
2023-02-15T11:36:23.570Z,13.52
2023-02-15T11:41:26.500Z,14.42
2023-02-15T11:46:26.526Z,15.37
2023-02-15T11:51:25.490Z,14.99
2023-02-15T11:56:26.740Z,15.44
2023-02-15T12:01:33.014Z,15.74
2023-02-15T12:06:35.848Z,15.45
2023-02-15T12:11:39.110Z,15.68
2023-02-15T12:16:46.985Z,15.78
2023-02-15T12:21:45.995Z,16.04
2023-02-15T12:26:46.206Z,16.65
2023-02-15T12:31:48.995Z,17.25
2023-02-15T12:36:51.864Z,17.05
2023-02-15T12:42:04.410Z,15.55
2023-02-15T12:47:06.728Z,15.82
2023-02-15T12:52:09.091Z,16.22
2023-02-15T12:57:25.705Z,16.02
2023-02-15T13:02:30.310Z,16.47
2023-02-15T13:07:34.251Z,16.82
2023-02-15T13:12:36.468Z,16.79
2023-02-15T13:17:36.673Z,17.36
2023-02-15T13:22:44.145Z,17.52
2023-02-15T13:27:46.653Z,17.91
2023-02-15T13:32:47.451Z,17.96
2023-02-15T13:38:24.857Z,17.80
2023-02-15T13:43:37.631Z,18.01
2023-02-15T13:48:50.566Z,18.34
2023-02-15T13:54:11.360Z,17.97
2023-02-15T13:59:27.259Z,18.81
2023-02-15T14:04:48.135Z,18.99
2023-02-15T14:10:01.471Z,18.43
2023-02-15T14:15:40.024Z,17.25
2023-02-15T14:20:59.352Z,17.42
2023-02-15T14:26:04.312Z,17.06
2023-02-15T14:31:09.027Z,17.41
2023-02-15T14:36:16.464Z,17.80
2023-02-15T14:41:22.006Z,17.93
2023-02-15T14:46:30.019Z,18.26
2023-02-15T14:52:03.418Z,17.56
2023-02-15T14:57:27.679Z,17.19
2023-02-15T15:02:49.915Z,17.56
2023-02-15T15:07:53.296Z,17.52
2023-02-15T15:13:44.483Z,16.86
2023-02-15T15:18:49.078Z,16.89
2023-02-15T15:23:57.228Z,16.80
2023-02-15T15:29:03.647Z,16.84
2023-02-15T15:34:24.184Z,16.55
2023-02-15T15:39:55.408Z,16.16
2023-02-15T15:45:21.943Z,15.84
2023-02-15T15:50:22.432Z,15.44
2023-02-15T15:55:24.956Z,15.05
2023-02-15T16:00:38.489Z,14.53
2023-02-15T16:05:39.818Z,14.22
2023-02-15T16:10:41.064Z,13.94
2023-02-15T16:15:51.098Z,13.66
2023-02-15T16:20:54.674Z,13.41
2023-02-15T16:26:05.209Z,13.11
2023-02-15T16:31:12.838Z,12.72
2023-02-15T16:36:22.062Z,12.46
2023-02-15T16:41:25.521Z,12.19
2023-02-15T16:46:28.962Z,12.00
2023-02-15T16:51:31.014Z,11.81
2023-02-15T16:56:33.398Z,11.61
2023-02-15T17:01:35.505Z,11.42
2023-02-15T17:06:36.457Z,11.21
2023-02-15T17:11:39.058Z,11.01
2023-02-15T17:16:42.946Z,10.85
2023-02-15T17:21:44.861Z,10.74
2023-02-15T17:26:45.513Z,10.61
2023-02-15T17:31:51.218Z,10.42
2023-02-15T17:37:00.457Z,10.28
2023-02-15T17:42:00.655Z,10.14
2023-02-15T17:46:59.830Z,9.98
2023-02-15T17:51:59.367Z,9.86
2023-02-15T17:57:03.442Z,9.77
2023-02-15T18:02:20.948Z,9.72
2023-02-15T18:07:37.607Z,9.63
2023-02-15T18:12:38.677Z,9.44
2023-02-15T18:17:42.054Z,9.31
2023-02-15T18:22:41.112Z,9.19
2023-02-15T18:27:39.963Z,9.08
2023-02-15T18:32:41.440Z,9.04
2023-02-15T18:37:40.383Z,8.95
2023-02-15T18:42:44.489Z,8.93
2023-02-15T18:47:44.968Z,8.91
2023-02-15T18:52:46.667Z,8.88
2023-02-15T18:57:48.643Z,8.31
2023-02-15T19:02:49.961Z,8.18
2023-02-15T19:07:49.664Z,8.18
2023-02-15T19:12:49.772Z,8.16
2023-02-15T19:17:50.009Z,8.16
2023-02-15T19:22:50.520Z,8.14
2023-02-15T19:27:49.757Z,8.11
2023-02-15T19:32:50.342Z,8.07
2023-02-15T19:37:54.630Z,7.97
2023-02-15T19:42:54.291Z,7.78
2023-02-15T19:47:57.165Z,7.72
2023-02-15T19:52:56.193Z,7.67
2023-02-15T19:57:56.758Z,7.62
2023-02-15T20:02:59.246Z,7.58
2023-02-15T20:07:58.884Z,7.55
2023-02-15T20:12:58.692Z,7.49
2023-02-15T20:18:00.186Z,7.41
2023-02-15T20:22:59.056Z,7.32
2023-02-15T20:28:42.770Z,7.15
2023-02-15T20:33:59.782Z,7.04
2023-02-15T20:39:02.183Z,7.00
2023-02-15T20:44:01.240Z,6.97
2023-02-15T20:49:01.361Z,6.85
2023-02-15T20:54:00.116Z,6.76
2023-02-15T20:58:58.940Z,6.69
2023-02-15T21:03:57.893Z,6.61
2023-02-15T21:08:58.179Z,6.55
2023-02-15T21:13:57.009Z,6.53
2023-02-15T21:18:55.811Z,6.48
2023-02-15T21:23:55.155Z,6.43
2023-02-15T21:28:57.728Z,6.26
2023-02-15T21:33:56.630Z,6.13
2023-02-15T21:38:55.489Z,6.14
2023-02-15T21:44:13.240Z,6.14
2023-02-15T21:49:11.936Z,5.98
2023-02-15T21:54:13.814Z,5.88
2023-02-15T21:59:16.044Z,5.89
2023-02-15T22:04:16.635Z,5.94
2023-02-15T22:09:17.393Z,5.93
2023-02-15T22:14:35.773Z,5.46
2023-02-15T22:19:38.229Z,5.38
2023-02-15T22:24:36.992Z,5.49
2023-02-15T22:29:37.124Z,5.60
2023-02-15T22:34:35.928Z,5.66
2023-02-15T22:39:34.708Z,5.71
2023-02-15T22:44:36.499Z,5.68
2023-02-15T22:49:35.342Z,5.71
2023-02-15T22:54:34.063Z,5.71
2023-02-15T22:59:34.248Z,5.71
2023-02-15T23:04:34.608Z,5.71
2023-02-15T23:09:33.554Z,5.41
2023-02-15T23:14:35.606Z,5.47
2023-02-15T23:19:35.732Z,5.52
2023-02-15T23:24:34.680Z,5.57
2023-02-15T23:29:33.385Z,5.59
2023-02-15T23:34:32.245Z,5.47
2023-02-15T23:39:50.045Z,5.15
2023-02-15T23:44:51.899Z,5.17
2023-02-15T23:49:50.675Z,5.18
2023-02-15T23:54:51.043Z,5.06
2023-02-15T23:59:52.786Z,5.00
